Robstown, Nueces County Airport (KRBO)

NameNueces County Airport
CityRobstown
CountryUnited States
ICAOKRBO
IATA
Altitude24 m
CoordinatesGoogle Map
Live Air TrafficLiveATC.net
METARKRBO 240555Z AUTO 00000KT 10SM CLR 24/23 A3002 RMK AO2 T02360225 10255 20236 403420236
2019-07-24 05:55:00 Wind: North (0°) 0 m/s - Visibility: 16093.4 m - Temperature: 24 °C - Dew point: 23 °C - Humidity: 94.2% - Pressure: 1016.59 hPa
Statistics

The table below shows the detailed information of all flights to/from Robstown, Nueces County Airport (KRBO).